logo
Search for airport 
image banner adimage banner adimage banner ad
image banner ad

ED2151 - Hornisgrinde

Located in , Germany

ICAO - , IATA -

Data provided by Airmate  

General information

Coordinates: N48°35'48" E8°11'52"
Elevation is 3610 feet MSL.
 
View others Airports in Baden-Württemberg

Operational data

Special qualification required
Current time UTC:
Current local time:
Weather at : EDSB - Karlsruhe/Baden-Baden ( 22 km )
METAR: EDSB 141650Z 03004KT CAVOK 22/15 Q1013
TAF: TAF EDSB 141100Z 1412/1512 30003KT 9999 FEW045 BECMG 1509/1511 36006KT
View NOTAMs / SUP AIP / TFR affecting this airport [VIEW]
Communications frequencies: [VIEW]

Runways:

Airport contact information

Address: Germany

Satellite view of ED2151